Time;durP1;ratioP1;P1;durP2;ratioP2;P2;SDS_P1;SDS_P2;PMS_P1;PMS_P2;Temp;Humidity;BMP_temperature;BMP_pressure;BME280_temperature;BME280_humidity;BME280_pressure;Samples;Min_cycle;Max_cycle;Signal;HPM_P1;HPM_P2
2022/08/10 00:02:25;;;;;;;4.90;4.60;;;;;;;;;;5083774;28;24760;-48
2022/08/10 00:04:50;;;;;;;4.80;4.30;;;;;;;;;;5077377;28;24422;-48
2022/08/10 00:07:15;;;;;;;4.40;4.00;;;;;;;;;;5070205;28;24510;-47
2022/08/10 00:09:40;;;;;;;4.45;4.15;;;;;;;;;;5088284;28;24418;-47
2022/08/10 00:12:05;;;;;;;4.90;4.40;;;;;;;;;;5077447;28;24979;-48
2022/08/10 00:14:31;;;;;;;4.70;4.40;;;;;;;;;;5074493;28;24429;-47
2022/08/10 00:16:56;;;;;;;4.60;4.30;;;;;;;;;;5084143;28;24430;-48
2022/08/10 00:19:21;;;;;;;4.47;4.10;;;;;;;;;;5078523;28;24411;-47
2022/08/10 00:21:46;;;;;;;4.30;3.90;;;;;;;;;;5069901;28;24430;-47
2022/08/10 00:24:11;;;;;;;4.75;4.35;;;;;;;;;;5073023;28;24443;-46
2022/08/10 00:26:36;;;;;;;5.07;4.60;;;;;;;;;;5074223;28;24433;-47
2022/08/10 00:29:02;;;;;;;4.70;4.30;;;;;;;;;;5070061;28;24600;-46
2022/08/10 00:31:27;;;;;;;4.50;4.10;;;;;;;;;;5074047;28;24465;-46
2022/08/10 00:33:52;;;;;;;4.50;4.20;;;;;;;;;;5067163;28;24421;-46
2022/08/10 00:36:18;;;;;;;4.40;4.10;;;;;;;;;;5079142;28;24508;-47
2022/08/10 00:38:43;;;;;;;4.95;4.55;;;;;;;;;;5082171;28;24411;-48
2022/08/10 00:41:08;;;;;;;4.80;4.50;;;;;;;;;;5077991;28;24432;-47
2022/08/10 00:43:33;;;;;;;5.30;4.80;;;;;;;;;;5071920;28;24852;-47
2022/08/10 00:45:58;;;;;;;5.05;4.65;;;;;;;;;;5080939;28;24512;-48
2022/08/10 00:48:23;;;;;;;5.20;4.90;;;;;;;;;;5075353;28;24504;-47
2022/08/10 00:50:49;;;;;;;5.40;5.00;;;;;;;;;;5081637;28;25073;-47
2022/08/10 00:53:14;;;;;;;5.10;4.80;;;;;;;;;;5070329;28;24419;-47
2022/08/10 00:55:39;;;;;;;5.35;5.05;;;;;;;;;;5079713;28;24513;-48
2022/08/10 00:58:05;;;;;;;6.40;5.20;;;;;;;;;;5074008;28;24426;-47
2022/08/10 01:00:30;;;;;;;5.10;4.70;;;;;;;;;;5074140;28;24529;-47
2022/08/10 01:02:55;;;;;;;4.77;4.47;;;;;;;;;;5074009;28;24419;-48
2022/08/10 01:05:21;;;;;;;4.70;4.40;;;;;;;;;;5067074;28;24472;-47
2022/08/10 01:07:48;;;;;;;5.05;4.65;;;;;;;;;;5075737;28;24407;-46
2022/08/10 01:10:33;;;;;;;4.97;4.57;;;;;;;;;;5079762;28;24422;-47
2022/08/10 01:13:07;;;;;;;5.20;4.70;;;;;;;;;;5073455;28;24525;-48
2022/08/10 01:15:52;;;;;;;5.10;4.80;;;;;;;;;;5075675;28;24841;-47
2022/08/10 01:18:38;;;;;;;4.70;4.30;;;;;;;;;;5070661;28;24747;-47
2022/08/10 01:21:16;;;;;;;5.10;4.70;;;;;;;;;;5081979;28;24521;-46
2022/08/10 01:23:43;;;;;;;5.00;4.50;;;;;;;;;;5073978;28;25300;-46
2022/08/10 01:26:09;;;;;;;5.10;4.60;;;;;;;;;;5082037;28;24855;-47
2022/08/10 01:29:00;;;;;;;5.30;4.90;;;;;;;;;;5072343;28;24454;-47
2022/08/10 01:31:29;;;;;;;5.45;4.95;;;;;;;;;;5081395;28;24525;-46
2022/08/10 01:33:57;;;;;;;5.45;4.95;;;;;;;;;;5078729;28;24433;-48
2022/08/10 01:36:26;;;;;;;5.38;4.97;;;;;;;;;;5068326;28;24434;-47
2022/08/10 01:38:52;;;;;;;5.80;5.40;;;;;;;;;;5071687;28;25039;-47
2022/08/10 01:41:20;;;;;;;5.05;4.70;;;;;;;;;;5080904;28;24426;-47
2022/08/10 01:43:47;;;;;;;5.25;4.85;;;;;;;;;;5070753;28;24506;-47
2022/08/10 01:46:14;;;;;;;5.40;5.00;;;;;;;;;;5071726;28;24968;-46
2022/08/10 01:48:42;;;;;;;5.10;4.70;;;;;;;;;;5067499;28;24445;-47
2022/08/10 01:51:07;;;;;;;5.72;5.25;;;;;;;;;;5075994;28;25035;-47
2022/08/10 01:53:35;;;;;;;4.88;4.57;;;;;;;;;;5071300;28;25003;-47
2022/08/10 01:56:01;;;;;;;5.35;4.95;;;;;;;;;;5071717;28;24427;-48
2022/08/10 01:58:26;;;;;;;5.40;5.00;;;;;;;;;;5074191;28;24777;-47
2022/08/10 02:00:53;;;;;;;5.30;4.90;;;;;;;;;;5076182;28;24560;-47
2022/08/10 02:03:19;;;;;;;5.38;4.97;;;;;;;;;;5068441;28;24410;-52
2022/08/10 02:05:46;;;;;;;5.18;4.88;;;;;;;;;;5072077;28;24464;-48
2022/08/10 02:08:13;;;;;;;5.20;4.70;;;;;;;;;;5072714;28;25083;-47
2022/08/10 02:10:39;;;;;;;5.35;4.95;;;;;;;;;;5066613;28;24477;-47
2022/08/10 02:13:05;;;;;;;6.20;5.70;;;;;;;;;;5080716;28;24448;-48
2022/08/10 02:15:32;;;;;;;5.03;4.70;;;;;;;;;;5069013;28;24508;-47
2022/08/10 02:17:58;;;;;;;5.80;5.40;;;;;;;;;;5066233;28;24418;-47
2022/08/10 02:20:24;;;;;;;5.20;4.90;;;;;;;;;;5068366;28;24544;-48
2022/08/10 02:23:01;;;;;;;5.20;4.80;;;;;;;;;;5074307;28;24414;-47
2022/08/10 02:25:27;;;;;;;5.10;4.80;;;;;;;;;;5077479;28;24435;-47
2022/08/10 02:27:53;;;;;;;5.15;4.85;;;;;;;;;;5069300;28;25043;-48
2022/08/10 02:30:18;;;;;;;5.20;4.90;;;;;;;;;;5067435;28;24527;-47
2022/08/10 02:32:44;;;;;;;5.80;5.40;;;;;;;;;;5069579;28;24419;-47
2022/08/10 02:35:11;;;;;;;5.20;4.90;;;;;;;;;;5069820;28;25046;-47
2022/08/10 02:37:37;;;;;;;5.60;5.10;;;;;;;;;;5075901;28;24459;-47
2022/08/10 02:40:03;;;;;;;5.40;5.00;;;;;;;;;;5072533;28;24422;-46
2022/08/10 02:42:32;;;;;;;5.05;4.75;;;;;;;;;;5073581;28;24844;-46
2022/08/10 02:45:04;;;;;;;5.30;4.90;;;;;;;;;;5069767;28;24410;-46
2022/08/10 02:47:31;;;;;;;4.90;4.60;;;;;;;;;;5076122;28;24478;-47
2022/08/10 02:50:09;;;;;;;5.32;4.93;;;;;;;;;;5077382;28;24518;-47
2022/08/10 02:52:39;;;;;;;5.60;5.10;;;;;;;;;;5068582;28;24480;-46
2022/08/10 02:55:09;;;;;;;5.88;5.38;;;;;;;;;;5084875;28;24422;-47
2022/08/10 02:57:37;;;;;;;5.60;5.20;;;;;;;;;;5074995;28;24431;-48
2022/08/10 03:00:04;;;;;;;6.40;6.00;;;;;;;;;;5080955;28;25166;-48
2022/08/10 03:02:33;;;;;;;5.82;5.32;;;;;;;;;;5071950;28;24422;-47
2022/08/10 03:05:13;;;;;;;5.47;5.17;;;;;;;;;;5073304;28;24491;-47
2022/08/10 03:07:59;;;;;;;5.57;5.10;;;;;;;;;;5069373;28;25333;-49
2022/08/10 03:10:29;;;;;;;5.78;5.30;;;;;;;;;;5078956;28;24418;-48
2022/08/10 03:12:58;;;;;;;6.80;6.30;;;;;;;;;;5076317;28;24968;-45
2022/08/10 03:15:23;;;;;;;5.72;5.32;;;;;;;;;;5071532;28;24789;-46
2022/08/10 03:17:50;;;;;;;5.60;5.30;;;;;;;;;;5064889;28;24975;-46
2022/08/10 03:20:18;;;;;;;5.95;5.55;;;;;;;;;;5064802;28;24515;-46
2022/08/10 03:22:43;;;;;;;6.00;5.60;;;;;;;;;;5071822;28;24979;-47
2022/08/10 03:25:09;;;;;;;6.32;5.90;;;;;;;;;;5069474;28;24418;-46
2022/08/10 03:27:35;;;;;;;6.30;5.70;;;;;;;;;;5067329;28;24438;-46
2022/08/10 03:30:00;;;;;;;6.20;5.70;;;;;;;;;;5072975;28;24421;-46
2022/08/10 03:32:26;;;;;;;5.90;5.50;;;;;;;;;;5071466;28;24994;-46
2022/08/10 03:34:52;;;;;;;6.67;6.10;;;;;;;;;;5071522;28;24836;-46
2022/08/10 03:37:17;;;;;;;6.30;5.90;;;;;;;;;;5076382;28;24435;-45
2022/08/10 03:39:42;;;;;;;6.27;5.87;;;;;;;;;;5074835;28;24430;-47
2022/08/10 03:42:10;;;;;;;6.47;6.00;;;;;;;;;;5071229;28;24956;-46
2022/08/10 03:44:36;;;;;;;6.78;6.28;;;;;;;;;;5085100;28;24418;-47
2022/08/10 03:47:03;;;;;;;6.75;6.25;;;;;;;;;;5074784;28;24426;-46
2022/08/10 03:49:29;;;;;;;7.28;6.57;;;;;;;;;;5087999;28;24422;-47
2022/08/10 03:51:56;;;;;;;7.13;6.53;;;;;;;;;;5078794;28;25011;-47
2022/08/10 03:54:21;;;;;;;7.00;6.40;;;;;;;;;;5080975;28;24521;-46
2022/08/10 03:56:47;;;;;;;6.50;6.00;;;;;;;;;;5080346;28;24865;-46
2022/08/10 03:59:13;;;;;;;6.30;5.90;;;;;;;;;;5069468;28;25073;-46
2022/08/10 04:01:40;;;;;;;5.93;5.53;;;;;;;;;;5078317;28;24410;-46
2022/08/10 04:04:05;;;;;;;6.75;6.15;;;;;;;;;;5079803;28;24501;-46
2022/08/10 04:06:30;;;;;;;6.78;6.28;;;;;;;;;;5079561;28;24568;-46
2022/08/10 04:08:57;;;;;;;6.90;6.40;;;;;;;;;;5072896;28;24425;-45
2022/08/10 04:11:22;;;;;;;6.70;6.20;;;;;;;;;;5071152;28;24895;-46
2022/08/10 04:13:47;;;;;;;6.65;6.20;;;;;;;;;;5074250;28;24988;-46
2022/08/10 04:16:12;;;;;;;6.75;6.25;;;;;;;;;;5069309;28;24426;-46
2022/08/10 04:18:37;;;;;;;7.20;6.60;;;;;;;;;;5083233;28;24430;-47
2022/08/10 04:21:07;;;;;;;7.05;6.55;;;;;;;;;;5077044;28;24636;-46
2022/08/10 04:23:33;;;;;;;7.13;6.43;;;;;;;;;;5077640;28;24435;-46
2022/08/10 04:25:58;;;;;;;6.90;6.20;;;;;;;;;;5078982;28;24472;-47
2022/08/10 04:28:24;;;;;;;7.70;7.00;;;;;;;;;;5082828;28;24434;-47
2022/08/10 04:30:51;;;;;;;6.30;5.70;;;;;;;;;;5078708;28;24433;-47
2022/08/10 04:33:17;;;;;;;6.07;5.57;;;;;;;;;;5081362;28;25349;-47
2022/08/10 04:35:43;;;;;;;6.60;6.10;;;;;;;;;;5073793;28;24589;-47
2022/08/10 04:38:09;;;;;;;6.60;6.10;;;;;;;;;;5069838;28;24411;-47
2022/08/10 04:40:34;;;;;;;6.00;5.60;;;;;;;;;;5071839;28;24816;-46
2022/08/10 04:43:01;;;;;;;6.50;6.00;;;;;;;;;;5075501;28;24430;-47
2022/08/10 04:45:26;;;;;;;6.90;6.40;;;;;;;;;;5077602;28;24425;-46
2022/08/10 04:47:51;;;;;;;6.50;6.00;;;;;;;;;;5077531;28;24560;-46
2022/08/10 04:50:16;;;;;;;6.20;5.70;;;;;;;;;;5076113;28;24426;-46
2022/08/10 04:52:41;;;;;;;6.50;6.00;;;;;;;;;;5067727;28;24500;-47
2022/08/10 04:55:07;;;;;;;7.27;6.20;;;;;;;;;;5071314;28;24413;-46
2022/08/10 04:57:32;;;;;;;8.30;7.50;;;;;;;;;;5071009;28;24445;-46
2022/08/10 04:59:57;;;;;;;6.47;5.97;;;;;;;;;;5077033;28;24509;-46
2022/08/10 05:02:22;;;;;;;6.77;6.27;;;;;;;;;;5066573;28;24524;-46
2022/08/10 05:04:47;;;;;;;8.07;7.40;;;;;;;;;;5068488;28;24540;-45
2022/08/10 05:07:13;;;;;;;7.20;6.60;;;;;;;;;;5079786;28;24426;-45
2022/08/10 05:09:39;;;;;;;6.80;6.20;;;;;;;;;;5077868;28;24508;-46
2022/08/10 05:12:05;;;;;;;6.77;6.17;;;;;;;;;;5074629;28;24424;-47
2022/08/10 05:14:30;;;;;;;7.10;6.50;;;;;;;;;;5078964;28;24426;-46
2022/08/10 05:16:55;;;;;;;7.13;6.53;;;;;;;;;;5075908;28;24431;-46
2022/08/10 05:19:20;;;;;;;6.30;5.70;;;;;;;;;;5071643;28;24516;-46
2022/08/10 05:21:45;;;;;;;7.20;6.43;;;;;;;;;;5074378;28;24965;-46
2022/08/10 05:24:10;;;;;;;7.13;6.43;;;;;;;;;;5077449;28;24422;-46
2022/08/10 05:26:35;;;;;;;6.50;6.00;;;;;;;;;;5068587;28;24490;-45
2022/08/10 05:29:01;;;;;;;7.27;6.67;;;;;;;;;;5074455;28;24999;-47
2022/08/10 05:31:26;;;;;;;8.30;7.23;;;;;;;;;;5068660;28;24429;-50
2022/08/10 05:33:51;;;;;;;6.90;6.20;;;;;;;;;;5067750;28;24879;-45
2022/08/10 05:36:16;;;;;;;7.15;6.45;;;;;;;;;;5070231;28;24434;-46
2022/08/10 05:38:41;;;;;;;7.20;6.60;;;;;;;;;;5075635;28;24453;-46
2022/08/10 05:41:07;;;;;;;7.50;6.90;;;;;;;;;;5070764;28;24824;-47
2022/08/10 05:43:32;;;;;;;7.00;6.40;;;;;;;;;;5068534;28;24500;-48
2022/08/10 05:45:57;;;;;;;7.20;6.70;;;;;;;;;;5071169;28;24422;-45
2022/08/10 05:48:22;;;;;;;7.70;7.00;;;;;;;;;;5070114;28;24984;-46
2022/08/10 05:50:47;;;;;;;7.63;6.90;;;;;;;;;;5069588;28;24481;-46
2022/08/10 05:53:13;;;;;;;7.70;7.00;;;;;;;;;;5072150;28;24439;-46
2022/08/10 05:55:38;;;;;;;8.30;7.60;;;;;;;;;;5073133;28;24434;-47
2022/08/10 05:58:03;;;;;;;7.90;7.20;;;;;;;;;;5069685;28;24497;-47
2022/08/10 06:00:29;;;;;;;8.00;7.20;;;;;;;;;;5066789;28;24454;-47
2022/08/10 06:02:56;;;;;;;7.82;7.07;;;;;;;;;;5071576;28;24433;-47
2022/08/10 06:05:25;;;;;;;8.82;8.02;;;;;;;;;;5070186;28;24426;-47
2022/08/10 06:08:04;;;;;;;7.20;6.60;;;;;;;;;;5066093;28;24430;-46
2022/08/10 06:10:30;;;;;;;6.85;6.18;;;;;;;;;;5073695;28;24789;-46
2022/08/10 06:15:41;;;;;;;8.77;6.90;;;;;;;;;;5071715;28;24434;-46
2022/08/10 06:18:07;;;;;;;7.10;6.60;;;;;;;;;;5075258;28;24430;-45
2022/08/10 06:20:32;;;;;;;6.60;6.10;;;;;;;;;;5073171;28;24480;-46
2022/08/10 06:22:59;;;;;;;6.80;6.20;;;;;;;;;;5071551;28;24464;-46
2022/08/10 06:25:24;;;;;;;6.38;5.88;;;;;;;;;;5069474;28;24834;-46
2022/08/10 06:27:50;;;;;;;6.30;5.80;;;;;;;;;;5067737;28;24431;-46
2022/08/10 06:30:16;;;;;;;5.70;5.30;;;;;;;;;;5067184;28;24383;-47
2022/08/10 06:32:41;;;;;;;7.67;5.97;;;;;;;;;;5066026;28;24967;-48
2022/08/10 06:35:07;;;;;;;7.00;6.50;;;;;;;;;;5074802;28;24560;-47
2022/08/10 06:37:33;;;;;;;8.60;6.50;;;;;;;;;;5079084;28;24583;-48
2022/08/10 06:39:58;;;;;;;6.20;5.77;;;;;;;;;;5083134;28;24776;-48
2022/08/10 06:42:26;;;;;;;7.97;7.17;;;;;;;;;;5077094;28;24522;-48
2022/08/10 06:44:59;;;;;;;6.10;5.63;;;;;;;;;;5070144;28;24858;-47
2022/08/10 06:47:32;;;;;;;7.20;6.60;;;;;;;;;;5083723;28;24421;-48
2022/08/10 06:50:01;;;;;;;7.80;7.00;;;;;;;;;;5075857;28;24415;-48
2022/08/10 06:52:27;;;;;;;7.07;6.47;;;;;;;;;;5073722;28;25044;-47
2022/08/10 06:54:54;;;;;;;5.70;5.30;;;;;;;;;;5079025;28;24438;-47
2022/08/10 06:57:21;;;;;;;6.10;5.60;;;;;;;;;;5064084;28;24580;-47
2022/08/10 06:59:47;;;;;;;6.50;5.90;;;;;;;;;;5064560;28;24446;-48
2022/08/10 07:02:35;;;;;;;6.00;5.60;;;;;;;;;;5070632;28;24465;-48
2022/08/10 07:05:05;;;;;;;5.75;5.30;;;;;;;;;;5067278;28;24455;-48
2022/08/10 07:07:33;;;;;;;6.35;5.85;;;;;;;;;;5074579;28;24438;-48
2022/08/10 07:09:58;;;;;;;6.68;6.07;;;;;;;;;;5074045;28;24964;-46
2022/08/10 07:12:24;;;;;;;5.90;5.40;;;;;;;;;;5071828;28;24445;-47
2022/08/10 07:14:50;;;;;;;5.60;5.10;;;;;;;;;;5073557;28;24438;-47
2022/08/10 07:17:17;;;;;;;6.20;5.00;;;;;;;;;;5082340;28;24435;-47
2022/08/10 07:19:47;;;;;;;5.40;5.00;;;;;;;;;;5086914;28;24809;-48
2022/08/10 07:22:14;;;;;;;5.90;5.30;;;;;;;;;;5085608;28;24430;-47
2022/08/10 07:24:40;;;;;;;6.40;5.80;;;;;;;;;;5084451;28;24468;-48
2022/08/10 07:27:05;;;;;;;6.53;6.03;;;;;;;;;;5069161;28;24507;-47
2022/08/10 07:29:31;;;;;;;6.47;5.97;;;;;;;;;;5066829;28;24484;-48
2022/08/10 07:31:58;;;;;;;5.80;5.40;;;;;;;;;;5066193;28;24583;-48
2022/08/10 07:34:24;;;;;;;5.85;5.35;;;;;;;;;;5075221;28;24494;-47
2022/08/10 07:36:51;;;;;;;5.80;5.30;;;;;;;;;;5087051;28;25074;-46
2022/08/10 07:39:17;;;;;;;5.63;5.13;;;;;;;;;;5075237;28;24411;-48
2022/08/10 07:41:43;;;;;;;5.70;5.10;;;;;;;;;;5067722;28;24391;-48
2022/08/10 07:44:10;;;;;;;5.50;5.00;;;;;;;;;;5074629;28;24418;-48
2022/08/10 07:46:37;;;;;;;5.40;5.00;;;;;;;;;;5066004;28;25015;-48
2022/08/10 07:49:04;;;;;;;4.60;4.20;;;;;;;;;;5066005;28;25049;-47
2022/08/10 07:51:30;;;;;;;5.27;4.87;;;;;;;;;;5067222;28;24435;-47
2022/08/10 07:53:58;;;;;;;7.20;4.93;;;;;;;;;;5073138;28;24526;-47
2022/08/10 07:56:24;;;;;;;5.60;5.20;;;;;;;;;;5082110;28;24444;-48
2022/08/10 07:58:53;;;;;;;5.20;4.80;;;;;;;;;;5086288;28;24418;-48
2022/08/10 08:01:20;;;;;;;6.05;5.55;;;;;;;;;;5075404;28;24530;-47
2022/08/10 08:03:46;;;;;;;5.38;4.90;;;;;;;;;;5079960;28;24525;-47
2022/08/10 08:06:12;;;;;;;4.70;4.40;;;;;;;;;;5066941;28;24546;-47
2022/08/10 08:08:37;;;;;;;5.10;4.70;;;;;;;;;;5077563;28;24483;-47
2022/08/10 08:11:04;;;;;;;4.30;4.00;;;;;;;;;;5070889;28;24435;-47
2022/08/10 08:13:30;;;;;;;4.47;4.18;;;;;;;;;;5084700;28;24432;-47
2022/08/10 08:15:57;;;;;;;4.60;4.20;;;;;;;;;;5073815;28;24984;-47
2022/08/10 08:18:22;;;;;;;5.40;5.00;;;;;;;;;;5074306;28;25022;-47
2022/08/10 08:20:48;;;;;;;4.70;4.40;;;;;;;;;;5073687;28;24418;-47
2022/08/10 08:23:15;;;;;;;4.90;4.40;;;;;;;;;;5078201;28;25069;-48
2022/08/10 08:25:41;;;;;;;4.60;4.30;;;;;;;;;;5071432;28;24458;-48
2022/08/10 08:28:07;;;;;;;5.60;5.20;;;;;;;;;;5078791;28;24842;-47
2022/08/10 08:30:33;;;;;;;5.40;4.90;;;;;;;;;;5080689;28;24414;-48
2022/08/10 08:32:58;;;;;;;5.38;4.90;;;;;;;;;;5078992;28;25147;-49
2022/08/10 08:35:24;;;;;;;4.80;4.40;;;;;;;;;;5080814;28;24491;-48
2022/08/10 08:37:51;;;;;;;5.30;4.80;;;;;;;;;;5082500;28;24513;-48
2022/08/10 08:40:22;;;;;;;6.85;4.70;;;;;;;;;;5087368;28;24445;-47
2022/08/10 08:43:06;;;;;;;5.03;4.63;;;;;;;;;;5082471;28;24453;-47
2022/08/10 08:45:38;;;;;;;5.80;4.88;;;;;;;;;;5072072;28;24440;-47
2022/08/10 08:48:18;;;;;;;5.18;4.70;;;;;;;;;;5088542;28;24460;-47
2022/08/10 08:51:09;;;;;;;6.78;5.28;;;;;;;;;;5069258;28;24391;-48
2022/08/10 08:53:34;;;;;;;4.70;4.40;;;;;;;;;;5069220;28;24810;-46
2022/08/10 08:56:12;;;;;;;4.68;4.38;;;;;;;;;;5088518;28;24855;-46
2022/08/10 08:58:57;;;;;;;5.30;4.50;;;;;;;;;;5083916;28;24430;-46
2022/08/10 09:01:29;;;;;;;6.65;5.00;;;;;;;;;;5071034;28;24564;-46
2022/08/10 09:03:54;;;;;;;4.10;3.80;;;;;;;;;;5076818;28;24864;-45
2022/08/10 09:06:44;;;;;;;4.70;4.30;;;;;;;;;;5072486;28;24695;-45
2022/08/10 09:09:12;;;;;;;4.28;3.90;;;;;;;;;;5076336;28;24422;-45
2022/08/10 09:11:49;;;;;;;4.30;4.00;;;;;;;;;;5067651;28;24394;-45
2022/08/10 09:14:24;;;;;;;4.30;3.67;;;;;;;;;;5078580;28;24455;-46
2022/08/10 09:17:02;;;;;;;3.50;3.20;;;;;;;;;;5069191;28;24442;-45
2022/08/10 09:19:32;;;;;;;3.50;3.20;;;;;;;;;;5068015;28;24494;-46
2022/08/10 09:22:00;;;;;;;4.00;3.60;;;;;;;;;;5075281;28;24514;-46
2022/08/10 09:24:45;;;;;;;4.40;4.00;;;;;;;;;;5067550;28;24507;-47
2022/08/10 09:27:21;;;;;;;4.25;3.85;;;;;;;;;;5067175;28;24486;-47
2022/08/10 09:29:53;;;;;;;4.40;4.00;;;;;;;;;;5085389;28;24425;-47
2022/08/10 09:32:44;;;;;;;3.97;3.70;;;;;;;;;;5081101;28;24972;-46
2022/08/10 09:35:28;;;;;;;4.10;3.80;;;;;;;;;;5085343;28;24544;-46
2022/08/10 09:38:11;;;;;;;4.80;4.40;;;;;;;;;;5067174;28;24398;-46
2022/08/10 09:40:39;;;;;;;4.30;4.00;;;;;;;;;;5067315;28;24773;-45
2022/08/10 09:43:10;;;;;;;4.82;4.32;;;;;;;;;;5070773;28;24406;-46
2022/08/10 09:45:44;;;;;;;4.07;3.78;;;;;;;;;;5066786;28;25203;-45
2022/08/10 09:48:19;;;;;;;4.13;3.83;;;;;;;;;;5073021;28;24551;-45
2022/08/10 09:50:57;;;;;;;4.10;3.80;;;;;;;;;;5082073;28;25048;-46
2022/08/10 09:53:22;;;;;;;4.30;3.80;;;;;;;;;;5066687;28;24506;-45
2022/08/10 09:55:52;;;;;;;4.28;3.97;;;;;;;;;;5085261;28;24572;-46
2022/08/10 09:58:19;;;;;;;4.50;4.10;;;;;;;;;;5086379;28;24390;-46
2022/08/10 10:00:46;;;;;;;3.80;3.50;;;;;;;;;;5078886;28;24850;-46
2022/08/10 10:03:11;;;;;;;4.10;3.40;;;;;;;;;;5078674;28;24782;-46
2022/08/10 10:06:15;;;;;;;3.60;3.30;;;;;;;;;;5072975;28;24771;-48
2022/08/10 10:08:53;;;;;;;3.80;3.50;;;;;;;;;;5056928;28;25020;-47
2022/08/10 10:11:37;;;;;;;4.38;4.00;;;;;;;;;;5044833;28;24403;-46
2022/08/10 10:14:22;;;;;;;4.28;3.97;;;;;;;;;;5067062;28;24522;-47
2022/08/10 10:16:48;;;;;;;5.30;4.35;;;;;;;;;;5085830;28;24429;-46
2022/08/10 10:19:45;;;;;;;4.53;4.13;;;;;;;;;;5080671;28;24406;-46
2022/08/10 10:22:25;;;;;;;4.63;4.28;;;;;;;;;;5072376;28;24950;-47
2022/08/10 10:25:08;;;;;;;4.35;3.72;;;;;;;;;;5069452;28;24419;-45
2022/08/10 10:27:39;;;;;;;4.43;4.10;;;;;;;;;;5071265;28;24426;-45
2022/08/10 10:30:07;;;;;;;4.30;3.97;;;;;;;;;;5065889;28;24498;-46
2022/08/10 10:32:35;;;;;;;4.60;4.20;;;;;;;;;;5074469;28;24422;-46
2022/08/10 10:35:19;;;;;;;4.10;3.70;;;;;;;;;;5073529;28;24419;-47
2022/08/10 10:37:45;;;;;;;4.20;3.80;;;;;;;;;;5074094;28;24430;-45
2022/08/10 10:40:12;;;;;;;3.80;3.50;;;;;;;;;;5090862;28;24811;-45
2022/08/10 10:42:44;;;;;;;3.88;3.58;;;;;;;;;;5084673;28;24508;-45
2022/08/10 10:45:14;;;;;;;3.85;3.50;;;;;;;;;;5074426;28;24462;-45
2022/08/10 10:47:45;;;;;;;3.70;3.40;;;;;;;;;;5088753;28;24976;-46
2022/08/10 10:50:11;;;;;;;3.85;3.65;;;;;;;;;;5077404;28;24421;-45
2022/08/10 10:52:37;;;;;;;4.40;4.00;;;;;;;;;;5071653;28;24422;-51
2022/08/10 10:55:18;;;;;;;3.70;3.40;;;;;;;;;;5075074;28;24483;-46
2022/08/10 10:57:59;;;;;;;4.10;3.80;;;;;;;;;;5070502;28;25108;-46
2022/08/10 11:00:26;;;;;;;4.50;4.10;;;;;;;;;;5073645;28;25010;-51
2022/08/10 11:03:10;;;;;;;4.27;3.87;;;;;;;;;;5069854;28;24514;-46
2022/08/10 11:05:47;;;;;;;5.40;4.20;;;;;;;;;;5069872;28;24415;-46
2022/08/10 11:08:21;;;;;;;6.07;4.57;;;;;;;;;;5073112;28;24419;-46
2022/08/10 11:10:50;;;;;;;4.47;4.10;;;;;;;;;;5070973;28;24545;-46
2022/08/10 11:13:30;;;;;;;5.47;4.20;;;;;;;;;;5084544;28;24422;-47
2022/08/10 11:16:24;;;;;;;5.18;4.60;;;;;;;;;;5073846;28;24479;-47
2022/08/10 11:19:08;;;;;;;5.72;4.38;;;;;;;;;;5039738;28;25000;-46
2022/08/10 11:21:33;;;;;;;4.47;4.18;;;;;;;;;;5066435;28;24423;-46
2022/08/10 11:24:02;;;;;;;4.45;4.07;;;;;;;;;;5076706;28;24433;-46
2022/08/10 11:26:32;;;;;;;3.90;3.67;;;;;;;;;;5074732;28;24491;-47
2022/08/10 11:29:05;;;;;;;4.10;3.80;;;;;;;;;;5070233;28;24435;-46
2022/08/10 11:31:33;;;;;;;3.80;3.50;;;;;;;;;;5083018;28;24418;-47
2022/08/10 11:34:22;;;;;;;3.90;3.60;;;;;;;;;;5075506;28;24426;-46
2022/08/10 11:36:52;;;;;;;4.10;3.80;;;;;;;;;;5067693;28;24438;-46
2022/08/10 11:39:33;;;;;;;3.97;3.67;;;;;;;;;;5076996;28;24786;-45
2022/08/10 11:42:20;;;;;;;4.40;4.00;;;;;;;;;;5073322;28;24438;-44
2022/08/10 11:44:53;;;;;;;4.00;3.50;;;;;;;;;;5068757;28;24425;-46
2022/08/10 11:47:20;;;;;;;3.97;3.67;;;;;;;;;;5072319;28;24753;-46
2022/08/10 11:50:07;;;;;;;3.90;3.60;;;;;;;;;;5072155;28;24465;-46
2022/08/10 11:52:52;;;;;;;4.38;4.00;;;;;;;;;;5066984;28;24438;-46
2022/08/10 11:55:21;;;;;;;5.38;3.95;;;;;;;;;;5067875;28;24960;-46
2022/08/10 11:57:48;;;;;;;5.20;4.10;;;;;;;;;;5074260;28;24438;-46
2022/08/10 12:00:13;;;;;;;4.38;3.97;;;;;;;;;;5076628;28;24655;-46
2022/08/10 12:02:47;;;;;;;4.05;3.70;;;;;;;;;;5079564;28;24513;-46
2022/08/10 12:05:21;;;;;;;3.90;3.60;;;;;;;;;;5072614;28;24565;-46
2022/08/10 12:07:49;;;;;;;3.90;3.70;;;;;;;;;;5082441;28;25004;-46
2022/08/10 12:10:14;;;;;;;4.32;3.65;;;;;;;;;;5082904;28;24453;-46
2022/08/10 12:12:49;;;;;;;4.30;4.00;;;;;;;;;;5081173;28;24468;-46
2022/08/10 12:15:18;;;;;;;4.60;4.20;;;;;;;;;;5074648;28;24471;-46
2022/08/10 12:17:51;;;;;;;4.00;3.70;;;;;;;;;;5079662;28;24793;-46
2022/08/10 12:20:23;;;;;;;4.75;3.85;;;;;;;;;;5085255;28;24452;-46
2022/08/10 12:22:57;;;;;;;4.13;3.83;;;;;;;;;;5085241;28;24429;-45
2022/08/10 12:25:26;;;;;;;4.13;3.83;;;;;;;;;;5067294;28;25033;-45
2022/08/10 12:27:53;;;;;;;3.90;3.60;;;;;;;;;;5076726;28;24430;-45
2022/08/10 12:30:19;;;;;;;4.40;4.10;;;;;;;;;;5068076;28;24395;-45
2022/08/10 12:33:03;;;;;;;4.13;3.72;;;;;;;;;;5069677;28;24461;-44
2022/08/10 12:35:32;;;;;;;3.90;3.70;;;;;;;;;;5075886;28;24414;-45
2022/08/10 12:38:04;;;;;;;4.07;3.70;;;;;;;;;;5084940;28;25013;-45
2022/08/10 12:40:32;;;;;;;4.43;3.80;;;;;;;;;;5076079;28;24911;-46
2022/08/10 12:42:57;;;;;;;4.20;3.90;;;;;;;;;;5068039;28;24541;-46
2022/08/10 12:45:31;;;;;;;4.20;3.80;;;;;;;;;;5069391;28;24395;-46
2022/08/10 12:48:00;;;;;;;4.13;3.83;;;;;;;;;;5068042;28;24430;-46
2022/08/10 12:50:48;;;;;;;4.30;4.00;;;;;;;;;;5067762;28;24391;-48
2022/08/10 12:53:28;;;;;;;4.05;3.72;;;;;;;;;;5067890;28;24980;-47
2022/08/10 12:55:54;;;;;;;3.90;3.60;;;;;;;;;;5084729;28;24811;-47
2022/08/10 12:58:19;;;;;;;4.30;4.00;;;;;;;;;;5088555;28;24944;-47
2022/08/10 13:00:45;;;;;;;4.23;3.93;;;;;;;;;;5087228;28;25132;-47
2022/08/10 13:03:11;;;;;;;4.50;4.10;;;;;;;;;;5088569;28;24436;-47
2022/08/10 13:05:36;;;;;;;4.10;3.90;;;;;;;;;;5085693;28;24839;-47
2022/08/10 13:10:52;;;;;;;4.07;3.67;;;;;;;;;;5084496;28;24994;-47
2022/08/10 13:13:18;;;;;;;3.78;3.47;;;;;;;;;;5087653;28;24394;-45
2022/08/10 13:15:44;;;;;;;4.50;4.10;;;;;;;;;;5087498;28;24489;-46
2022/08/10 13:18:11;;;;;;;4.43;3.80;;;;;;;;;;5087362;28;24418;-47
2022/08/10 13:20:39;;;;;;;4.00;3.70;;;;;;;;;;5086520;28;24463;-46
2022/08/10 13:23:08;;;;;;;4.20;3.90;;;;;;;;;;5086948;28;24444;-45
2022/08/10 13:25:35;;;;;;;5.20;4.50;;;;;;;;;;5087799;28;24418;-45
2022/08/10 13:28:03;;;;;;;3.90;3.70;;;;;;;;;;5087821;28;24401;-46
2022/08/10 13:30:28;;;;;;;4.20;3.80;;;;;;;;;;5087199;28;24398;-45
2022/08/10 13:32:54;;;;;;;4.00;3.60;;;;;;;;;;5087390;28;24928;-46
2022/08/10 13:35:20;;;;;;;4.10;3.80;;;;;;;;;;5080423;28;24431;-46
2022/08/10 13:37:47;;;;;;;4.25;3.90;;;;;;;;;;5066754;28;24429;-46
2022/08/10 13:40:13;;;;;;;4.60;4.20;;;;;;;;;;5067215;28;24429;-46
2022/08/10 13:42:39;;;;;;;4.85;4.35;;;;;;;;;;5067373;28;24510;-46
2022/08/10 13:45:15;;;;;;;6.68;3.90;;;;;;;;;;5065089;28;24444;-49
2022/08/10 13:47:42;;;;;;;4.15;3.70;;;;;;;;;;5066822;28;24438;-46
2022/08/10 13:50:09;;;;;;;4.40;4.10;;;;;;;;;;5066614;28;25017;-44
2022/08/10 13:52:35;;;;;;;4.40;3.90;;;;;;;;;;5066544;28;24445;-46
2022/08/10 13:55:01;;;;;;;3.92;3.30;;;;;;;;;;5067266;28;25186;-45
2022/08/10 13:57:32;;;;;;;4.80;4.10;;;;;;;;;;5066810;28;24479;-45
2022/08/10 13:59:58;;;;;;;4.20;3.80;;;;;;;;;;5066612;28;24857;-46
2022/08/10 14:02:43;;;;;;;4.40;4.00;;;;;;;;;;5066820;28;24429;-45
2022/08/10 14:05:08;;;;;;;4.20;3.72;;;;;;;;;;5070002;28;24417;-45
2022/08/10 14:07:37;;;;;;;3.67;3.38;;;;;;;;;;5086736;28;24760;-46
2022/08/10 14:10:07;;;;;;;3.90;3.60;;;;;;;;;;5087340;28;24394;-46
2022/08/10 14:12:51;;;;;;;3.83;3.53;;;;;;;;;;5086871;28;24414;-46
2022/08/10 14:15:17;;;;;;;4.22;3.60;;;;;;;;;;5086827;28;24455;-45
2022/08/10 14:17:44;;;;;;;4.10;3.80;;;;;;;;;;5087094;28;24536;-45
2022/08/10 14:20:10;;;;;;;3.80;3.60;;;;;;;;;;5071396;28;24407;-46
2022/08/10 14:22:36;;;;;;;4.50;3.80;;;;;;;;;;5066104;28;24486;-46
2022/08/10 14:25:04;;;;;;;3.60;3.40;;;;;;;;;;5066873;28;24483;-47
2022/08/10 14:27:31;;;;;;;3.90;3.60;;;;;;;;;;5082542;28;24431;-46
2022/08/10 14:29:56;;;;;;;4.20;3.80;;;;;;;;;;5086859;28;24402;-45
2022/08/10 14:32:24;;;;;;;3.70;3.40;;;;;;;;;;5086955;28;25096;-46
2022/08/10 14:34:50;;;;;;;3.40;3.20;;;;;;;;;;5083145;28;24545;-46
2022/08/10 14:37:17;;;;;;;4.20;3.80;;;;;;;;;;5066257;28;24945;-46
2022/08/10 14:39:43;;;;;;;3.70;3.40;;;;;;;;;;5073965;28;24411;-46
2022/08/10 14:42:14;;;;;;;4.07;3.67;;;;;;;;;;5067529;28;24423;-46
2022/08/10 14:44:44;;;;;;;3.85;3.40;;;;;;;;;;5066586;28;24395;-46
2022/08/10 14:47:11;;;;;;;4.68;3.90;;;;;;;;;;5065291;28;24972;-46
2022/08/10 14:49:37;;;;;;;4.15;3.50;;;;;;;;;;5065490;28;24769;-46
2022/08/10 14:52:03;;;;;;;3.80;3.50;;;;;;;;;;5066246;28;24424;-47
2022/08/10 14:54:31;;;;;;;3.30;3.10;;;;;;;;;;5066596;28;24387;-47
2022/08/10 14:57:01;;;;;;;4.65;3.15;;;;;;;;;;5079403;28;24439;-47
2022/08/10 14:59:27;;;;;;;3.90;3.60;;;;;;;;;;5066328;28;24466;-46
2022/08/10 15:01:56;;;;;;;4.20;3.90;;;;;;;;;;5065130;28;25105;-47